Time;durP1;ratioP1;P1;durP2;ratioP2;P2;SDS_P1;SDS_P2;PMS_P1;PMS_P2;Temp;Humidity;BMP_temperature;BMP_pressure;BME280_temperature;BME280_humidity;BME280_pressure;Samples;Min_cycle;Max_cycle;Signal;HPM_P1;HPM_P2
2022/10/12 00:01:08;;;;;;;9.27;3.10;;;5.50;99.90;;;;;;5063532;28;20514;-65
2022/10/12 00:03:34;;;;;;;14.02;3.95;;;5.40;99.90;;;;;;5042636;28;20022;-64
2022/10/12 00:06:23;;;;;;;12.50;3.28;;;5.50;99.90;;;;;;5046500;28;20029;-65
2022/10/12 00:08:51;;;;;;;5.28;2.65;;;5.40;99.90;;;;;;5042545;28;20036;-66
2022/10/12 00:11:19;;;;;;;8.20;2.88;;;5.40;99.90;;;;;;5042285;28;20515;-65
2022/10/12 00:13:45;;;;;;;8.35;3.40;;;5.40;99.90;;;;;;5041933;28;20036;-65
2022/10/12 00:16:12;;;;;;;11.48;3.15;;;5.40;99.90;;;;;;5057674;28;20539;-66
2022/10/12 00:18:39;;;;;;;10.80;3.78;;;5.50;99.90;;;;;;5045466;28;20021;-64
2022/10/12 00:21:07;;;;;;;8.68;3.67;;;5.50;99.90;;;;;;5048957;28;20029;-65
2022/10/12 00:23:34;;;;;;;11.68;4.07;;;5.50;99.90;;;;;;5044015;28;20396;-65
2022/10/12 00:26:04;;;;;;;10.18;3.22;;;5.40;99.90;;;;;;5051493;28;20021;-66
2022/10/12 00:28:31;;;;;;;7.22;3.35;;;5.40;99.90;;;;;;5022453;28;20570;-65
2022/10/12 00:30:57;;;;;;;8.63;3.70;;;5.40;99.90;;;;;;5037788;28;20108;-64
2022/10/12 00:33:23;;;;;;;11.10;3.72;;;5.30;99.90;;;;;;5041775;28;20100;-65
2022/10/12 00:35:48;;;;;;;7.40;3.13;;;5.30;99.90;;;;;;5042741;28;20032;-64
2022/10/12 00:38:14;;;;;;;8.93;4.03;;;5.30;99.90;;;;;;5041648;28;20098;-64
2022/10/12 00:40:40;;;;;;;11.13;4.32;;;5.30;99.90;;;;;;5032796;28;20055;-64
2022/10/12 00:43:24;;;;;;;17.50;4.05;;;5.20;99.90;;;;;;5041386;28;20029;-64
2022/10/12 00:45:50;;;;;;;10.95;3.30;;;5.20;99.90;;;;;;5045724;28;20025;-63
2022/10/12 00:48:16;;;;;;;12.48;3.97;;;5.10;99.90;;;;;;5046611;28;20405;-65
2022/10/12 00:50:41;;;;;;;9.10;3.03;;;5.10;99.90;;;;;;5040175;28;20033;-65
2022/10/12 00:53:13;;;;;;;9.20;3.30;;;5.10;99.90;;;;;;5039818;28;20476;-65
2022/10/12 00:55:45;;;;;;;16.67;4.10;;;5.10;99.90;;;;;;5039030;28;20480;-64
2022/10/12 00:58:12;;;;;;;10.45;3.55;;;5.10;99.90;;;;;;5042703;28;20071;-66
2022/10/12 01:00:39;;;;;;;11.30;3.70;;;5.00;99.90;;;;;;5045503;28;20032;-66
2022/10/12 01:03:08;;;;;;;14.18;4.00;;;5.00;99.90;;;;;;5043112;28;20562;-64
2022/10/12 01:05:34;;;;;;;5.18;3.05;;;5.00;99.90;;;;;;5042088;28;20022;-66
2022/10/12 01:08:01;;;;;;;14.43;3.85;;;4.90;99.90;;;;;;5036710;28;20021;-65
2022/10/12 01:10:27;;;;;;;11.82;3.78;;;4.90;99.90;;;;;;5040112;28;20365;-64
2022/10/12 01:12:53;;;;;;;6.50;3.13;;;4.90;99.90;;;;;;5035295;28;20094;-64
2022/10/12 01:15:19;;;;;;;14.52;3.65;;;4.80;99.90;;;;;;5042102;28;20025;-64
2022/10/12 01:18:05;;;;;;;9.95;3.58;;;4.80;99.90;;;;;;5036692;28;20025;-66
2022/10/12 01:20:34;;;;;;;27.02;4.80;;;4.80;99.90;;;;;;5045079;28;20555;-65
2022/10/12 01:23:39;;;;;;;6.75;3.83;;;4.80;99.90;;;;;;5047886;28;20056;-64
2022/10/12 01:26:23;;;;;;;;;;;4.80;99.90;;;;;;5039343;28;20033;-64
2022/10/12 01:28:49;;;;;;;;;;;4.90;99.90;;;;;;5025956;28;20018;-65
2022/10/12 01:31:41;;;;;;;13.43;4.07;;;4.90;99.90;;;;;;5040848;28;19948;-65
2022/10/12 01:34:35;;;;;;;6.55;2.90;;;4.90;99.90;;;;;;5042926;28;20029;-65
2022/10/12 01:37:35;;;;;;;9.55;3.67;;;4.80;99.90;;;;;;5040881;28;20062;-64
2022/10/12 01:40:06;;;;;;;11.93;3.67;;;4.80;99.90;;;;;;5019675;28;20454;-64
2022/10/12 01:42:36;;;;;;;17.77;3.75;;;4.80;99.90;;;;;;5041764;28;20484;-65
2022/10/12 01:45:03;;;;;;;9.93;3.45;;;4.70;99.90;;;;;;5048509;28;20082;-65
2022/10/12 01:47:29;;;;;;;8.82;2.90;;;4.70;99.90;;;;;;5042479;28;20538;-65
2022/10/12 01:49:56;;;;;;;10.75;3.83;;;4.60;99.90;;;;;;5048925;28;20017;-65
2022/10/12 01:52:55;;;;;;;13.52;4.50;;;4.60;99.90;;;;;;5045808;28;20017;-65
2022/10/12 01:55:32;;;;;;;16.50;5.28;;;4.60;99.90;;;;;;5041786;28;20041;-65
2022/10/12 01:58:07;;;;;;;8.15;3.40;;;4.50;99.90;;;;;;5053946;28;20045;-65
2022/10/12 02:00:42;;;;;;;9.93;3.22;;;4.50;99.90;;;;;;5049910;28;20579;-65
2022/10/12 02:03:17;;;;;;;12.98;3.85;;;4.40;99.90;;;;;;5040963;28;20029;-64
2022/10/12 02:05:55;;;;;;;10.07;3.15;;;4.40;99.90;;;;;;5039632;28;20105;-64
2022/10/12 02:08:31;;;;;;;13.40;3.42;;;4.40;99.90;;;;;;5046982;28;20492;-64
2022/10/12 02:11:19;;;;;;;14.35;3.45;;;4.40;99.90;;;;;;5046112;28;20033;-64
2022/10/12 02:13:57;;;;;;;7.93;3.33;;;4.40;99.90;;;;;;5042469;28;20393;-70
2022/10/12 02:16:32;;;;;;;15.80;4.13;;;4.40;99.90;;;;;;5047435;28;20144;-65
2022/10/12 02:18:59;;;;;;;7.60;3.60;;;4.30;99.90;;;;;;5037451;28;20048;-65
2022/10/12 02:21:31;;;;;;;6.60;2.83;;;4.20;99.90;;;;;;5047094;28;20104;-65
2022/10/12 02:24:00;;;;;;;14.13;4.43;;;4.20;99.90;;;;;;5046236;28;20056;-66
2022/10/12 02:26:27;;;;;;;10.55;3.28;;;4.10;99.90;;;;;;5047159;28;20079;-65
2022/10/12 02:28:53;;;;;;;18.52;4.65;;;4.10;99.90;;;;;;5023390;28;20045;-64
2022/10/12 02:31:30;;;;;;;8.60;4.30;;;4.00;99.90;;;;;;5044163;28;20120;-65
2022/10/12 02:34:10;;;;;;;16.52;4.38;;;4.00;99.90;;;;;;5043820;28;20032;-65
2022/10/12 02:36:52;;;;;;;14.27;3.28;;;4.00;99.90;;;;;;5045211;28;20028;-64
2022/10/12 02:39:30;;;;;;;11.60;3.45;;;4.00;99.90;;;;;;5050513;28;20025;-65
2022/10/12 02:42:03;;;;;;;8.23;4.20;;;4.00;99.90;;;;;;5046329;28;20017;-66
2022/10/12 02:44:33;;;;;;;18.65;3.30;;;3.90;99.90;;;;;;5045158;28;20059;-67
2022/10/12 02:47:01;;;;;;;15.23;3.95;;;3.90;99.90;;;;;;5044624;28;20395;-63
2022/10/12 02:49:29;;;;;;;9.95;3.95;;;3.80;99.90;;;;;;5050717;28;20555;-65
2022/10/12 02:51:56;;;;;;;9.70;3.58;;;3.80;99.90;;;;;;5043248;28;20021;-65
2022/10/12 02:54:21;;;;;;;15.48;4.43;;;3.90;99.90;;;;;;5042564;28;20476;-66
2022/10/12 02:56:47;;;;;;;10.70;4.03;;;3.90;99.90;;;;;;5043807;28;20023;-65
2022/10/12 02:59:14;;;;;;;11.00;3.83;;;3.90;99.90;;;;;;5043573;28;20025;-64
2022/10/12 03:01:40;;;;;;;11.98;3.45;;;3.90;99.90;;;;;;5047862;28;20044;-65
2022/10/12 03:04:06;;;;;;;5.97;2.90;;;3.90;99.90;;;;;;5039258;28;20071;-66
2022/10/12 03:06:31;;;;;;;8.48;3.28;;;3.90;99.90;;;;;;5049661;28;20056;-65
2022/10/12 03:08:57;;;;;;;13.70;3.92;;;3.90;99.90;;;;;;5050844;28;20031;-65
2022/10/12 03:11:23;;;;;;;20.92;3.67;;;3.90;99.90;;;;;;5046027;28;20025;-65
2022/10/12 03:13:53;;;;;;;8.15;3.17;;;3.90;99.90;;;;;;5044562;28;20187;-65
2022/10/12 03:16:19;;;;;;;18.70;4.22;;;4.00;99.90;;;;;;5045029;28;20047;-64
2022/10/12 03:18:44;;;;;;;12.52;3.55;;;4.10;99.90;;;;;;5045195;28;20023;-64
2022/10/12 03:21:10;;;;;;;12.82;3.15;;;4.10;99.90;;;;;;5050450;28;20384;-64
2022/10/12 03:23:36;;;;;;;8.05;3.08;;;4.10;99.90;;;;;;5049722;28;20079;-64
2022/10/12 03:26:02;;;;;;;12.10;2.90;;;4.20;99.90;;;;;;5051352;28;20052;-66
2022/10/12 03:28:28;;;;;;;10.40;3.47;;;4.20;99.90;;;;;;5036382;28;20041;-64
2022/10/12 03:30:54;;;;;;;12.65;3.53;;;4.30;99.90;;;;;;5047021;28;20063;-65
2022/10/12 03:33:19;;;;;;;7.25;3.97;;;4.30;99.90;;;;;;5050689;28;20033;-65
2022/10/12 03:35:46;;;;;;;10.93;3.22;;;4.30;99.90;;;;;;5038305;28;20481;-64
2022/10/12 03:38:12;;;;;;;6.75;2.80;;;4.20;99.90;;;;;;5043519;28;20029;-66
2022/10/12 03:40:38;;;;;;;17.58;3.28;;;4.20;99.90;;;;;;5045065;28;20051;-65
2022/10/12 03:43:04;;;;;;;10.60;3.15;;;4.20;99.90;;;;;;5046753;28;20488;-64
2022/10/12 03:45:29;;;;;;;15.27;2.72;;;4.10;99.90;;;;;;5047775;28;20029;-64
2022/10/12 03:47:55;;;;;;;8.82;3.15;;;4.20;99.90;;;;;;5045982;28;20053;-64
2022/10/12 03:50:21;;;;;;;15.13;3.60;;;4.10;99.90;;;;;;5048018;28;20110;-65
2022/10/12 03:52:46;;;;;;;17.13;3.33;;;4.10;99.90;;;;;;5040935;28;20506;-64
2022/10/12 03:55:12;;;;;;;14.05;3.72;;;4.00;99.90;;;;;;5051305;28;20039;-64
2022/10/12 03:57:38;;;;;;;11.50;3.50;;;4.00;99.90;;;;;;5042177;28;20025;-64
2022/10/12 04:00:05;;;;;;;11.40;3.35;;;4.00;99.90;;;;;;5048309;28;20100;-64
2022/10/12 04:02:30;;;;;;;5.40;3.15;;;3.90;99.90;;;;;;5045118;28;20029;-65
2022/10/12 04:04:56;;;;;;;11.20;4.78;;;3.90;99.90;;;;;;5050133;28;20048;-67
2022/10/12 04:07:22;;;;;;;16.88;4.78;;;3.80;99.90;;;;;;5050169;28;20024;-65
2022/10/12 04:09:47;;;;;;;23.73;4.55;;;3.80;99.90;;;;;;5043350;28;20033;-65
2022/10/12 04:12:13;;;;;;;11.73;4.00;;;3.80;99.90;;;;;;5040993;28;20096;-64
2022/10/12 04:14:39;;;;;;;11.60;4.43;;;3.90;99.90;;;;;;5048780;28;20518;-65
2022/10/12 04:17:04;;;;;;;11.32;4.75;;;3.90;99.90;;;;;;5047607;28;20028;-65
2022/10/12 04:19:30;;;;;;;14.32;4.68;;;3.90;99.90;;;;;;5042690;28;20454;-65
2022/10/12 04:21:56;;;;;;;10.63;5.38;;;3.80;99.90;;;;;;5045341;28;20025;-64
2022/10/12 04:24:21;;;;;;;15.15;5.30;;;3.80;99.90;;;;;;5048228;28;20116;-65
2022/10/12 04:26:47;;;;;;;13.55;6.53;;;3.80;99.90;;;;;;5042859;28;20086;-64
2022/10/12 04:29:13;;;;;;;21.95;12.25;;;3.80;99.90;;;;;;5025946;28;20045;-66
2022/10/12 04:31:39;;;;;;;19.52;13.05;;;3.80;99.90;;;;;;5047775;28;20624;-64
2022/10/12 04:34:05;;;;;;;23.23;12.98;;;3.80;99.90;;;;;;5050785;28;20029;-64
2022/10/12 04:36:30;;;;;;;26.05;12.07;;;3.80;99.90;;;;;;5034605;28;20385;-65
2022/10/12 04:38:56;;;;;;;17.58;7.13;;;3.70;99.90;;;;;;5040534;28;20546;-64
2022/10/12 04:41:21;;;;;;;20.58;6.13;;;3.60;99.90;;;;;;5037920;28;20025;-65
2022/10/12 04:43:47;;;;;;;13.70;4.45;;;3.60;99.90;;;;;;5042016;28;20392;-64
2022/10/12 04:46:12;;;;;;;13.77;6.15;;;3.50;99.90;;;;;;5049073;28;20127;-65
2022/10/12 04:48:38;;;;;;;16.08;6.07;;;3.40;99.90;;;;;;5043588;28;20078;-63
2022/10/12 04:51:04;;;;;;;14.73;6.47;;;3.30;99.90;;;;;;5046366;28;20028;-62
2022/10/12 04:53:30;;;;;;;19.88;8.30;;;3.30;99.90;;;;;;5048205;28;20096;-64
2022/10/12 04:55:56;;;;;;;14.57;6.30;;;3.30;99.90;;;;;;5037830;28;20038;-65
2022/10/12 04:58:22;;;;;;;16.13;5.60;;;3.20;99.90;;;;;;5048739;28;20024;-64
2022/10/12 05:00:48;;;;;;;10.18;4.70;;;3.20;99.90;;;;;;5045052;28;20032;-65
2022/10/12 05:03:14;;;;;;;10.48;5.03;;;3.20;99.90;;;;;;5049001;28;20017;-65
2022/10/12 05:05:39;;;;;;;7.50;3.92;;;3.20;99.90;;;;;;5044295;28;20040;-64
2022/10/12 05:08:05;;;;;;;10.05;4.10;;;3.10;99.90;;;;;;5048732;28;20021;-64
2022/10/12 05:10:32;;;;;;;11.43;3.97;;;3.10;99.90;;;;;;5047340;28;20091;-66
2022/10/12 05:12:57;;;;;;;15.13;3.47;;;3.20;99.90;;;;;;5039383;28;20032;-66
2022/10/12 05:15:23;;;;;;;11.82;4.00;;;3.20;99.90;;;;;;5048070;28;20021;-64
2022/10/12 05:17:49;;;;;;;7.85;3.80;;;3.20;99.90;;;;;;5039866;28;20365;-64
2022/10/12 05:20:15;;;;;;;12.27;4.13;;;3.20;99.90;;;;;;5043155;28;20025;-65
2022/10/12 05:22:40;;;;;;;17.45;4.15;;;3.30;99.90;;;;;;5044932;28;20025;-65
2022/10/12 05:25:07;;;;;;;10.77;5.15;;;3.30;99.90;;;;;;5049217;28;20021;-65
2022/10/12 05:27:32;;;;;;;10.02;5.05;;;3.30;99.90;;;;;;5040346;28;20396;-66
2022/10/12 05:29:58;;;;;;;10.95;5.03;;;3.40;99.90;;;;;;5024898;28;20041;-66
2022/10/12 05:32:23;;;;;;;13.10;5.32;;;3.40;99.90;;;;;;5043487;28;20041;-65
2022/10/12 05:34:49;;;;;;;12.65;4.55;;;3.40;99.90;;;;;;5035923;28;20076;-64
2022/10/12 05:37:15;;;;;;;11.13;5.00;;;3.40;99.90;;;;;;5045740;28;20063;-66
2022/10/12 05:39:40;;;;;;;12.50;4.95;;;3.50;99.90;;;;;;5042055;28;20029;-65
2022/10/12 05:42:06;;;;;;;13.90;5.10;;;3.50;99.90;;;;;;5047222;28;20021;-65
2022/10/12 05:44:32;;;;;;;12.27;4.13;;;3.50;99.90;;;;;;5029163;28;20110;-64
2022/10/12 05:46:58;;;;;;;14.38;3.80;;;3.60;99.90;;;;;;5042842;28;20087;-65
2022/10/12 05:49:24;;;;;;;12.10;3.90;;;3.60;99.90;;;;;;5043719;28;20032;-64
2022/10/12 05:51:49;;;;;;;12.25;3.58;;;3.60;99.90;;;;;;5045370;28;20530;-65
2022/10/12 05:54:15;;;;;;;8.02;3.80;;;3.70;99.90;;;;;;5043810;28;20029;-65
2022/10/12 05:56:41;;;;;;;10.00;4.35;;;3.60;99.90;;;;;;5047539;28;20052;-64
2022/10/12 05:59:06;;;;;;;14.43;3.92;;;3.60;99.90;;;;;;5046482;28;20021;-64
2022/10/12 06:01:32;;;;;;;12.90;4.57;;;3.60;99.90;;;;;;5047775;28;20025;-64
2022/10/12 06:03:58;;;;;;;6.38;2.90;;;3.60;99.90;;;;;;5042444;28;20021;-66
2022/10/12 06:06:23;;;;;;;11.00;3.45;;;3.60;99.90;;;;;;5039334;28;20057;-65
2022/10/12 06:08:49;;;;;;;8.27;3.08;;;3.60;99.90;;;;;;5046309;28;20029;-65
2022/10/12 06:11:14;;;;;;;8.80;2.97;;;3.60;99.90;;;;;;5050231;28;20792;-65
2022/10/12 06:13:40;;;;;;;11.60;4.38;;;3.60;99.90;;;;;;5051010;28;20487;-65
2022/10/12 06:16:06;;;;;;;14.38;6.10;;;3.60;99.90;;;;;;5055422;28;20072;-64
2022/10/12 06:18:31;;;;;;;18.63;5.15;;;3.70;99.90;;;;;;5046247;28;20036;-65
2022/10/12 06:20:57;;;;;;;15.88;6.53;;;3.80;99.90;;;;;;5052179;28;20029;-65
2022/10/12 06:23:23;;;;;;;12.88;3.80;;;3.90;99.90;;;;;;5047232;28;20404;-66
2022/10/12 06:25:50;;;;;;;10.18;3.20;;;3.90;99.90;;;;;;5049721;28;20142;-66
2022/10/12 06:28:18;;;;;;;9.30;3.33;;;3.90;99.90;;;;;;5029409;28;20532;-65
2022/10/12 06:30:45;;;;;;;17.08;3.78;;;4.00;99.90;;;;;;5051832;28;20118;-64
2022/10/12 06:33:11;;;;;;;7.95;3.80;;;4.00;99.90;;;;;;5047163;28;20033;-65
2022/10/12 06:35:36;;;;;;;10.38;3.60;;;3.90;99.90;;;;;;5034667;28;20377;-65
2022/10/12 06:38:02;;;;;;;11.20;3.63;;;3.90;99.90;;;;;;5063494;28;20048;-67
2022/10/12 06:40:28;;;;;;;8.57;3.20;;;3.90;99.90;;;;;;5051832;28;20029;-67
2022/10/12 06:42:53;;;;;;;12.20;4.38;;;3.90;99.90;;;;;;5045987;28;20040;-67
2022/10/12 06:45:19;;;;;;;13.95;4.50;;;3.90;99.90;;;;;;5045680;28;20031;-67
2022/10/12 06:47:44;;;;;;;10.23;3.92;;;3.90;99.90;;;;;;5063644;28;20039;-67
2022/10/12 06:50:11;;;;;;;12.98;4.65;;;4.00;99.90;;;;;;5046798;28;20028;-68
2022/10/12 06:52:36;;;;;;;9.85;4.72;;;4.10;99.90;;;;;;5045006;28;20057;-67
2022/10/12 06:55:03;;;;;;;7.70;3.70;;;4.10;99.90;;;;;;5045454;28;20053;-67
2022/10/12 06:57:28;;;;;;;13.50;3.65;;;4.20;99.90;;;;;;5046258;28;20033;-65
2022/10/12 06:59:54;;;;;;;14.32;4.82;;;4.20;99.90;;;;;;5051785;28;20025;-67
2022/10/12 07:02:19;;;;;;;8.68;3.60;;;4.40;99.90;;;;;;5043006;28;20017;-67
2022/10/12 07:04:52;;;;;;;10.27;3.60;;;4.50;99.90;;;;;;5056900;28;20392;-66
2022/10/12 07:07:18;;;;;;;10.35;3.83;;;4.70;99.90;;;;;;5051921;28;20067;-66
2022/10/12 07:09:44;;;;;;;7.75;3.80;;;4.80;99.90;;;;;;5040639;28;20032;-67
2022/10/12 07:12:10;;;;;;;13.48;5.28;;;4.90;99.90;;;;;;5038661;28;20029;-66
2022/10/12 07:14:36;;;;;;;18.63;5.72;;;5.00;99.90;;;;;;5050360;28;20041;-66
2022/10/12 07:17:01;;;;;;;18.15;5.25;;;5.10;99.90;;;;;;5050104;28;20492;-66
2022/10/12 07:19:27;;;;;;;13.63;4.25;;;5.10;99.90;;;;;;5047996;28;20069;-65
2022/10/12 07:21:52;;;;;;;13.73;6.57;;;5.20;99.90;;;;;;5045708;28;20025;-66
2022/10/12 07:24:18;;;;;;;22.58;7.63;;;5.20;99.90;;;;;;5039960;28;20021;-66
2022/10/12 07:26:43;;;;;;;25.02;8.30;;;5.20;99.90;;;;;;5040252;28;20074;-67
2022/10/12 07:29:09;;;;;;;23.67;8.55;;;5.30;99.90;;;;;;5026888;28;20051;-65
2022/10/12 07:31:35;;;;;;;22.70;8.32;;;5.30;99.90;;;;;;5041264;28;20403;-66
2022/10/12 07:34:01;;;;;;;17.95;6.70;;;5.40;99.90;;;;;;5036091;28;20067;-64
2022/10/12 07:36:27;;;;;;;13.52;4.93;;;5.50;99.90;;;;;;5047987;28;20110;-66
2022/10/12 07:38:52;;;;;;;7.30;3.35;;;5.60;99.90;;;;;;5040314;28;20476;-65
2022/10/12 07:41:18;;;;;;;8.40;2.88;;;5.70;99.90;;;;;;5047965;28;20479;-65
2022/10/12 07:43:44;;;;;;;12.95;3.25;;;5.90;99.90;;;;;;5044761;28;20029;-64
2022/10/12 07:46:10;;;;;;;4.90;2.25;;;6.10;99.90;;;;;;5048029;28;20037;-65
2022/10/12 07:48:36;;;;;;;6.47;2.30;;;6.30;99.90;;;;;;5032133;28;20024;-65
2022/10/12 07:51:11;;;;;;;6.93;2.47;;;6.40;99.90;;;;;;5040723;28;20022;-65
2022/10/12 07:53:38;;;;;;;12.43;2.80;;;6.60;99.90;;;;;;5048710;28;20143;-65
2022/10/12 07:56:06;;;;;;;12.13;2.10;;;6.70;99.90;;;;;;5049119;28;20021;-67
2022/10/12 07:58:32;;;;;;;6.93;2.28;;;6.90;99.90;;;;;;5046605;28;20029;-65
2022/10/12 08:01:08;;;;;;;7.80;1.73;;;7.10;99.90;;;;;;5047187;28;20102;-65
2022/10/12 08:03:34;;;;;;;10.55;2.17;;;7.30;99.90;;;;;;5044342;28;20025;-66
2022/10/12 08:06:07;;;;;;;10.80;2.33;;;7.40;99.90;;;;;;5043471;28;20059;-66
2022/10/12 08:08:33;;;;;;;9.07;2.00;;;7.60;99.90;;;;;;5043721;28;20027;-66
2022/10/12 08:11:00;;;;;;;13.85;3.53;;;7.70;99.90;;;;;;5045534;28;20179;-66
2022/10/12 08:13:25;;;;;;;6.10;2.03;;;7.80;99.90;;;;;;5038216;28;20504;-65
2022/10/12 08:15:51;;;;;;;6.65;2.20;;;8.00;99.90;;;;;;5043578;28;20132;-65
2022/10/12 08:18:17;;;;;;;7.13;2.25;;;8.00;99.90;;;;;;5042515;28;20531;-66
2022/10/12 08:20:42;;;;;;;8.27;1.98;;;8.10;99.90;;;;;;5038547;28;20024;-65
2022/10/12 08:23:08;;;;;;;9.85;3.17;;;8.20;99.90;;;;;;5036175;28;20032;-65
2022/10/12 08:25:36;;;;;;;7.57;2.53;;;8.40;99.90;;;;;;5033768;28;21052;-66
2022/10/12 08:28:03;;;;;;;6.75;2.50;;;8.50;99.90;;;;;;5043093;28;20119;-65
2022/10/12 08:30:28;;;;;;;5.68;2.10;;;8.50;99.90;;;;;;5012890;28;20053;-65
2022/10/12 08:32:54;;;;;;;6.18;2.70;;;8.50;99.90;;;;;;5035003;28;20102;-67
2022/10/12 08:35:19;;;;;;;12.93;2.88;;;8.60;99.90;;;;;;5030004;28;20033;-66
2022/10/12 08:37:45;;;;;;;7.28;2.13;;;8.70;99.90;;;;;;5034475;28;20028;-66
2022/10/12 08:40:24;;;;;;;4.47;2.45;;;8.80;99.90;;;;;;5035929;28;20078;-65
2022/10/12 08:43:04;;;;;;;10.57;2.30;;;8.80;99.90;;;;;;5033362;28;20021;-66
2022/10/12 08:45:55;;;;;;;7.22;3.25;;;9.00;99.90;;;;;;5043726;28;20574;-66
2022/10/12 08:48:26;;;;;;;9.02;2.42;;;9.10;99.90;;;;;;5041589;28;20037;-65
2022/10/12 08:51:01;;;;;;;6.07;2.63;;;9.20;99.90;;;;;;5038135;28;20525;-65
2022/10/12 08:54:01;;;;;;;12.68;2.83;;;9.30;99.90;;;;;;5043274;28;20029;-66
2022/10/12 08:56:27;;;;;;;10.30;2.35;;;9.40;99.90;;;;;;5057199;28;20024;-65
2022/10/12 08:58:53;;;;;;;10.02;2.78;;;9.60;99.90;;;;;;5039727;28;20029;-66
2022/10/12 09:01:29;;;;;;;7.90;2.65;;;9.70;99.90;;;;;;5046340;28;20036;-66
2022/10/12 09:04:36;;;;;;;5.55;2.70;;;10.10;99.90;;;;;;5045791;28;20437;-66
2022/10/12 09:07:36;;;;;;;9.85;2.40;;;10.90;99.90;;;;;;5034454;28;20037;-66
2022/10/12 09:10:28;;;;;;;12.20;2.63;;;12.10;99.90;;;;;;5038809;28;20416;-66
2022/10/12 09:13:07;;;;;;;4.30;2.30;;;13.00;99.90;;;;;;5038850;28;20110;-66
2022/10/12 09:15:44;;;;;;;7.50;2.17;;;13.00;99.90;;;;;;5038887;28;20026;-66
2022/10/12 09:18:24;;;;;;;5.78;2.15;;;13.10;99.90;;;;;;5035542;28;20547;-68
2022/10/12 09:20:51;;;;;;;6.63;2.65;;;13.10;99.90;;;;;;5048041;28;20033;-66
2022/10/12 09:23:24;;;;;;;11.15;2.40;;;13.10;99.90;;;;;;5038234;28;20036;-65
2022/10/12 09:25:59;;;;;;;7.22;2.58;;;13.10;99.90;;;;;;5046212;28;20048;-66
2022/10/12 09:28:32;;;;;;;8.43;3.55;;;13.40;99.90;;;;;;5024284;28;20070;-66
2022/10/12 09:31:43;;;;;;;7.65;2.65;;;13.20;99.90;;;;;;5034891;28;20128;-66
2022/10/12 09:34:09;;;;;;;6.72;2.70;;;12.80;99.90;;;;;;5038470;28;20049;-66
2022/10/12 09:36:37;;;;;;;7.28;2.97;;;12.90;99.90;;;;;;5040904;28;20059;-65
2022/10/12 09:39:10;;;;;;;9.93;2.33;;;13.40;99.90;;;;;;5037884;28;20545;-64
2022/10/12 09:41:40;;;;;;;8.13;2.45;;;14.10;99.90;;;;;;5038560;28;20061;-64
2022/10/12 09:44:08;;;;;;;6.35;3.00;;;14.70;99.90;;;;;;5036056;28;20447;-63
2022/10/12 09:46:44;;;;;;;8.77;2.75;;;15.20;98.80;;;;;;5038298;28;20059;-65
2022/10/12 09:49:10;;;;;;;5.93;2.10;;;15.10;98.80;;;;;;5040418;28;20029;-65
2022/10/12 09:51:36;;;;;;;9.45;2.78;;;15.10;98.00;;;;;;5040013;28;20024;-64
2022/10/12 09:54:03;;;;;;;10.20;2.80;;;15.00;98.90;;;;;;5033340;28;20032;-64
2022/10/12 09:56:38;;;;;;;10.38;2.58;;;15.00;99.40;;;;;;5046821;28;20020;-65
2022/10/12 09:59:38;;;;;;;10.73;2.60;;;14.70;99.90;;;;;;5040254;28;20017;-66
2022/10/12 10:02:07;;;;;;;6.88;2.83;;;14.70;99.40;;;;;;5039958;28;20021;-65
2022/10/12 10:04:33;;;;;;;6.85;2.20;;;14.70;99.10;;;;;;5040422;28;20038;-64
2022/10/12 10:07:19;;;;;;;6.80;2.60;;;14.60;99.20;;;;;;5034345;28;20486;-63
2022/10/12 10:09:45;;;;;;;8.45;2.00;;;14.40;99.70;;;;;;5043063;28;20083;-64
2022/10/12 10:12:26;;;;;;;7.57;2.05;;;14.50;99.90;;;;;;5031525;28;20087;-64
2022/10/12 10:14:57;;;;;;;7.68;2.53;;;14.60;99.90;;;;;;5039349;28;20034;-65
2022/10/12 10:17:30;;;;;;;9.43;2.67;;;14.70;99.90;;;;;;5041206;28;20092;-67
2022/10/12 10:19:57;;;;;;;7.43;3.20;;;14.70;99.90;;;;;;5037085;28;20460;-66
2022/10/12 10:22:24;;;;;;;6.13;1.95;;;14.60;99.90;;;;;;5042853;28;20411;-68
2022/10/12 10:24:56;;;;;;;8.50;2.92;;;14.90;99.70;;;;;;5036831;28;20618;-67
2022/10/12 10:27:38;;;;;;;6.68;2.08;;;15.20;99.40;;;;;;5034718;28;20029;-67
2022/10/12 10:30:16;;;;;;;5.05;2.60;;;15.40;99.20;;;;;;5026269;28;20037;-66
2022/10/12 10:32:43;;;;;;;6.28;2.28;;;15.10;99.40;;;;;;5047233;28;20391;-66
2022/10/12 10:35:12;;;;;;;6.32;2.55;;;15.10;99.20;;;;;;5042366;28;20037;-66
2022/10/12 10:37:42;;;;;;;7.32;2.33;;;15.10;98.80;;;;;;5044581;28;20033;-66
2022/10/12 10:40:21;;;;;;;7.38;1.90;;;15.20;99.50;;;;;;5038904;28;20025;-67
2022/10/12 10:42:53;;;;;;;6.70;2.13;;;15.50;98.30;;;;;;5039571;28;20029;-66
2022/10/12 10:45:32;;;;;;;7.63;2.25;;;15.80;97.30;;;;;;5034561;28;20112;-67
2022/10/12 10:48:08;;;;;;;9.27;2.40;;;15.70;97.80;;;;;;5036987;28;20395;-66
2022/10/12 10:50:37;;;;;;;14.27;3.22;;;15.60;98.70;;;;;;5036972;28;20030;-66
2022/10/12 10:53:07;;;;;;;7.53;3.13;;;15.80;98.30;;;;;;5031511;28;20116;-67
2022/10/12 10:55:51;;;;;;;9.35;2.72;;;16.00;97.70;;;;;;5041898;28;20499;-66
2022/10/12 10:58:42;;;;;;;4.45;2.13;;;16.00;96.90;;;;;;5046325;28;20040;-65
2022/10/12 11:01:21;;;;;;;5.05;2.08;;;15.90;97.00;;;;;;5054758;28;20514;-66
2022/10/12 11:03:53;;;;;;;4.43;1.90;;;16.10;97.50;;;;;;5042041;28;20024;-67
2022/10/12 11:06:26;;;;;;;8.98;2.50;;;16.20;96.80;;;;;;5040740;28;20399;-67
2022/10/12 11:09:00;;;;;;;7.90;3.22;;;16.20;96.70;;;;;;5043357;28;20049;-66
2022/10/12 11:11:28;;;;;;;4.05;2.20;;;16.30;96.90;;;;;;5061926;28;20025;-67
2022/10/12 11:14:17;;;;;;;8.38;2.55;;;16.40;97.10;;;;;;5037913;28;20024;-66
2022/10/12 11:16:54;;;;;;;4.72;2.45;;;16.10;96.90;;;;;;5036914;28;20044;-66
2022/10/12 11:19:35;;;;;;;7.88;2.90;;;16.10;97.90;;;;;;5048402;28;20040;-65
2022/10/12 11:22:13;;;;;;;9.43;2.67;;;16.10;98.20;;;;;;5044797;28;20044;-66
2022/10/12 11:24:48;;;;;;;8.07;3.20;;;16.10;97.70;;;;;;5041862;28;20418;-68
2022/10/12 11:27:38;;;;;;;6.57;2.47;;;16.30;97.80;;;;;;5046336;28;20028;-66
2022/10/12 11:30:16;;;;;;;8.70;2.63;;;16.80;97.50;;;;;;5022467;28;20161;-66
2022/10/12 11:32:53;;;;;;;8.45;2.85;;;16.70;96.10;;;;;;5048608;28;20499;-67
2022/10/12 11:35:26;;;;;;;5.60;2.13;;;16.80;96.60;;;;;;5042950;28;20091;-68
2022/10/12 11:38:27;;;;;;;8.32;2.33;;;17.00;95.80;;;;;;5040942;28;20055;-67
2022/10/12 11:41:06;;;;;;;6.40;2.03;;;17.10;96.10;;;;;;5037122;28;20033;-66
2022/10/12 11:43:48;;;;;;;5.70;2.10;;;16.90;95.50;;;;;;5051908;28;20017;-67
2022/10/12 11:46:18;;;;;;;8.73;2.28;;;17.00;96.30;;;;;;5048284;28;20025;-67
2022/10/12 11:48:53;;;;;;;6.03;2.10;;;17.30;97.00;;;;;;5043825;28;20040;-67
2022/10/12 11:51:19;;;;;;;7.13;2.58;;;17.40;96.50;;;;;;5038646;28;20021;-66
2022/10/12 11:54:16;;;;;;;4.60;1.70;;;17.30;96.50;;;;;;5040521;28;20091;-67
2022/10/12 11:56:47;;;;;;;6.22;2.05;;;17.20;96.90;;;;;;5046092;28;20030;-67
2022/10/12 11:59:37;;;;;;;6.18;2.00;;;17.00;95.70;;;;;;5044383;28;20024;-67
2022/10/12 12:02:27;;;;;;;6.00;2.65;;;16.60;95.70;;;;;;5061576;28;20091;-66
2022/10/12 12:04:53;;;;;;;7.32;2.50;;;16.40;96.40;;;;;;5036797;28;20033;-67
2022/10/12 12:07:52;;;;;;;6.95;2.65;;;16.20;97.60;;;;;;5036454;28;20027;-66
2022/10/12 12:10:41;;;;;;;12.32;2.65;;;16.10;99.30;;;;;;5041572;28;20022;-65
2022/10/12 12:13:13;;;;;;;9.27;2.95;;;15.90;97.00;;;;;;5041057;28;20032;-68
2022/10/12 12:15:40;;;;;;;4.93;2.47;;;15.60;97.60;;;;;;5043372;28;20617;-66
2022/10/12 12:18:11;;;;;;;6.20;3.08;;;15.50;97.10;;;;;;5036253;28;20021;-66
2022/10/12 12:20:42;;;;;;;8.40;3.42;;;15.50;97.60;;;;;;5038313;28;20501;-65
2022/10/12 12:23:20;;;;;;;6.70;2.40;;;15.50;97.60;;;;;;5049904;28;20013;-67
2022/10/12 12:25:46;;;;;;;10.02;2.45;;;15.60;98.30;;;;;;5045782;28;20022;-66
2022/10/12 12:28:23;;;;;;;6.07;2.20;;;15.70;98.40;;;;;;5046345;28;20025;-66
2022/10/12 12:30:58;;;;;;;4.75;2.25;;;15.90;99.00;;;;;;5025315;28;20052;-66
2022/10/12 12:33:31;;;;;;;6.15;3.08;;;16.00;99.20;;;;;;5036419;28;20683;-66
2022/10/12 12:36:03;;;;;;;6.13;2.03;;;16.00;98.80;;;;;;5042854;28;20036;-66
2022/10/12 12:38:49;;;;;;;8.85;3.42;;;16.10;99.20;;;;;;5048082;28;20428;-65
2022/10/12 12:41:20;;;;;;;7.90;2.55;;;16.20;99.00;;;;;;5043635;28;20096;-67
2022/10/12 12:43:55;;;;;;;8.05;2.50;;;16.30;98.70;;;;;;5046131;28;20031;-67
2022/10/12 12:46:23;;;;;;;8.57;3.00;;;16.40;98.80;;;;;;5036820;28;20037;-67
2022/10/12 12:48:48;;;;;;;8.07;2.55;;;16.30;98.20;;;;;;5041791;28;20048;-66
2022/10/12 12:51:41;;;;;;;7.65;2.97;;;16.30;98.80;;;;;;5040227;28;20033;-66
2022/10/12 12:54:20;;;;;;;8.02;3.55;;;16.30;98.00;;;;;;5032523;28;20711;-66
2022/10/12 12:56:49;;;;;;;7.80;3.20;;;16.10;98.10;;;;;;5036244;28;20033;-65
2022/10/12 12:59:38;;;;;;;8.32;3.33;;;16.00;98.60;;;;;;5058623;28;20697;-67
2022/10/12 13:02:27;;;;;;;12.15;2.95;;;15.90;99.20;;;;;;5038245;28;20021;-66
2022/10/12 13:05:35;;;;;;;5.82;3.75;;;15.80;99.30;;;;;;5044855;28;20056;-67
2022/10/12 13:08:39;;;;;;;6.85;3.08;;;15.80;99.60;;;;;;5041921;28;20036;-64
2022/10/12 13:11:17;;;;;;;8.38;3.15;;;15.80;99.60;;;;;;5035152;28;20573;-66